Time;durP1;ratioP1;P1;durP2;ratioP2;P2;SDS_P1;SDS_P2;PMS_P1;PMS_P2;Temp;Humidity;BMP_temperature;BMP_pressure;BME280_temperature;BME280_humidity;BME280_pressure;Samples;Min_cycle;Max_cycle;Signal;HPM_P1;HPM_P2
2023/03/31 00:00:00;;;;;;;0.7;0.7;;;;;;;11.2;100.0;100180;;;;
2023/03/31 00:01:03;;;;;;;1.0;1.0;;;;;;;11.2;100.0;100180;;;;
2023/03/31 00:02:01;;;;;;;1.0;1.0;;;;;;;11.3;100.0;100170;;;;
2023/03/31 00:03:01;;;;;;;1.0;1.0;;;;;;;11.3;100.0;100170;;;;
2023/03/31 00:04:03;;;;;;;1.0;1.0;;;;;;;11.2;100.0;100160;;;;
2023/03/31 00:05:00;;;;;;;1.0;1.0;;;;;;;11.2;100.0;100160;;;;
2023/03/31 00:06:00;;;;;;;1.0;1.0;;;;;;;11.4;100.0;100160;;;;
2023/03/31 00:07:00;;;;;;;1.0;1.0;;;;;;;11.4;100.0;100160;;;;
2023/03/31 00:08:00;;;;;;;1.0;1.0;;;;;;;11.3;100.0;100150;;;;
2023/03/31 00:09:00;;;;;;;1.0;1.0;;;;;;;11.3;100.0;100150;;;;
2023/03/31 00:10:10;;;;;;;1.0;1.0;;;;;;;11.2;100.0;100150;;;;
2023/03/31 00:11:01;;;;;;;1.0;1.0;;;;;;;11.2;100.0;100150;;;;
2023/03/31 00:12:00;;;;;;;1.0;1.0;;;;;;;11.3;100.0;100140;;;;
2023/03/31 00:13:01;;;;;;;1.0;1.0;;;;;;;11.3;100.0;100140;;;;
2023/03/31 00:14:00;;;;;;;1.0;1.0;;;;;;;11.2;100.0;100140;;;;
2023/03/31 00:15:00;;;;;;;1.0;1.0;;;;;;;11.2;100.0;100140;;;;
2023/03/31 00:16:04;;;;;;;1.0;1.0;;;;;;;11.1;100.0;100140;;;;
2023/03/31 00:17:03;;;;;;;1.0;1.0;;;;;;;11.1;100.0;100140;;;;
2023/03/31 00:18:01;;;;;;;1.0;1.0;;;;;;;11.0;100.0;100140;;;;
2023/03/31 00:19:00;;;;;;;1.0;1.0;;;;;;;11.0;100.0;100140;;;;
2023/03/31 00:20:03;;;;;;;1.0;1.0;;;;;;;11.1;100.0;100140;;;;
2023/03/31 00:21:13;;;;;;;1.0;1.0;;;;;;;11.1;100.0;100140;;;;
2023/03/31 00:22:00;;;;;;;1.0;1.0;;;;;;;11.0;100.0;100140;;;;
2023/03/31 00:23:00;;;;;;;1.0;1.0;;;;;;;11.0;100.0;100140;;;;
2023/03/31 00:24:02;;;;;;;1.0;1.0;;;;;;;11.1;100.0;100140;;;;
2023/03/31 00:25:00;;;;;;;1.0;1.0;;;;;;;11.1;100.0;100140;;;;
2023/03/31 00:26:00;;;;;;;1.0;1.0;;;;;;;11.1;100.0;100130;;;;
2023/03/31 00:27:01;;;;;;;1.0;1.0;;;;;;;11.1;100.0;100130;;;;
2023/03/31 00:28:00;;;;;;;1.0;1.0;;;;;;;11.1;100.0;100120;;;;
2023/03/31 00:29:01;;;;;;;1.0;1.0;;;;;;;11.1;100.0;100120;;;;
2023/03/31 00:30:00;;;;;;;1.0;1.0;;;;;;;11.0;100.0;100110;;;;
2023/03/31 00:31:01;;;;;;;1.0;1.0;;;;;;;11.0;100.0;100110;;;;
2023/03/31 00:32:00;;;;;;;1.0;1.0;;;;;;;11.1;100.0;100110;;;;
2023/03/31 00:33:00;;;;;;;1.0;1.0;;;;;;;11.1;100.0;100110;;;;
2023/03/31 00:34:00;;;;;;;1.0;1.0;;;;;;;11.1;100.0;100100;;;;
2023/03/31 00:35:01;;;;;;;1.0;1.0;;;;;;;11.1;100.0;100100;;;;
2023/03/31 00:36:04;;;;;;;1.0;1.0;;;;;;;11.1;100.0;100100;;;;
2023/03/31 00:37:01;;;;;;;1.0;1.0;;;;;;;11.1;100.0;100100;;;;
2023/03/31 00:38:00;;;;;;;1.0;1.0;;;;;;;11.3;100.0;100090;;;;
2023/03/31 00:39:03;;;;;;;1.0;1.0;;;;;;;11.3;100.0;100090;;;;
2023/03/31 00:40:01;;;;;;;1.0;1.0;;;;;;;11.2;100.0;100090;;;;
2023/03/31 00:41:01;;;;;;;0.6;0.6;;;;;;;11.2;100.0;100090;;;;
2023/03/31 00:42:01;;;;;;;0.6;0.6;;;;;;;11.3;100.0;100080;;;;
2023/03/31 00:43:01;;;;;;;0.6;0.6;;;;;;;11.3;100.0;100080;;;;
2023/03/31 00:44:00;;;;;;;0.6;0.6;;;;;;;11.3;100.0;100080;;;;
2023/03/31 00:45:11;;;;;;;0.6;0.6;;;;;;;11.3;100.0;100080;;;;
2023/03/31 00:46:04;;;;;;;0.6;0.6;;;;;;;11.3;100.0;100080;;;;
2023/03/31 00:47:05;;;;;;;0.6;0.6;;;;;;;11.3;100.0;100080;;;;
2023/03/31 00:48:10;;;;;;;0.6;0.6;;;;;;;11.3;100.0;100070;;;;
2023/03/31 00:49:01;;;;;;;0.6;0.6;;;;;;;11.3;100.0;100070;;;;
2023/03/31 00:50:00;;;;;;;0.6;0.6;;;;;;;11.3;100.0;100070;;;;
2023/03/31 00:51:03;;;;;;;0.6;0.6;;;;;;;11.3;100.0;100070;;;;
2023/03/31 00:52:07;;;;;;;0.6;0.6;;;;;;;11.3;100.0;100060;;;;
2023/03/31 00:53:05;;;;;;;0.6;0.6;;;;;;;11.3;100.0;100060;;;;
2023/03/31 00:54:03;;;;;;;0.6;0.6;;;;;;;11.2;100.0;100060;;;;
2023/03/31 00:55:04;;;;;;;0.6;0.6;;;;;;;11.2;100.0;100060;;;;
2023/03/31 00:56:03;;;;;;;0.6;0.6;;;;;;;11.3;100.0;100050;;;;
2023/03/31 00:57:02;;;;;;;0.6;0.6;;;;;;;11.3;100.0;100050;;;;
2023/03/31 00:58:03;;;;;;;0.6;0.6;;;;;;;11.3;100.0;100050;;;;
2023/03/31 00:59:02;;;;;;;0.6;0.6;;;;;;;11.3;100.0;100050;;;;
2023/03/31 01:00:09;;;;;;;0.6;0.6;;;;;;;11.3;100.0;100040;;;;
2023/03/31 01:01:02;;;;;;;0.8;0.8;;;;;;;11.3;100.0;100040;;;;
2023/03/31 01:02:01;;;;;;;0.8;0.8;;;;;;;11.3;100.0;100040;;;;
2023/03/31 01:03:05;;;;;;;0.8;0.8;;;;;;;11.3;100.0;100040;;;;
2023/03/31 01:04:01;;;;;;;0.8;0.8;;;;;;;11.2;100.0;100040;;;;
2023/03/31 01:05:01;;;;;;;0.8;0.8;;;;;;;11.2;100.0;100040;;;;
2023/03/31 01:06:03;;;;;;;0.8;0.8;;;;;;;11.3;100.0;100040;;;;
2023/03/31 01:07:11;;;;;;;0.8;0.8;;;;;;;11.3;100.0;100040;;;;
2023/03/31 01:08:01;;;;;;;0.8;0.8;;;;;;;11.1;100.0;100030;;;;
2023/03/31 01:09:05;;;;;;;0.8;0.8;;;;;;;11.1;100.0;100030;;;;
2023/03/31 01:10:02;;;;;;;0.8;0.8;;;;;;;11.2;100.0;100030;;;;
2023/03/31 01:11:02;;;;;;;0.8;0.8;;;;;;;11.2;100.0;100030;;;;
2023/03/31 01:12:03;;;;;;;0.8;0.8;;;;;;;11.1;100.0;100030;;;;
2023/03/31 01:13:00;;;;;;;0.8;0.8;;;;;;;11.1;100.0;100030;;;;
2023/03/31 01:14:02;;;;;;;0.8;0.8;;;;;;;11.1;100.0;100020;;;;
2023/03/31 01:15:02;;;;;;;0.8;0.8;;;;;;;11.1;100.0;100020;;;;
2023/03/31 01:16:00;;;;;;;0.8;0.8;;;;;;;11.1;100.0;100020;;;;
2023/03/31 01:17:01;;;;;;;0.8;0.8;;;;;;;11.1;100.0;100020;;;;
2023/03/31 01:18:02;;;;;;;0.8;0.8;;;;;;;11.1;100.0;100020;;;;
2023/03/31 01:19:02;;;;;;;0.8;0.8;;;;;;;11.1;100.0;100020;;;;
2023/03/31 01:20:13;;;;;;;1.2;1.1;;;;;;;11.1;100.0;100010;;;;
2023/03/31 01:21:02;;;;;;;1.2;1.1;;;;;;;11.1;100.0;100010;;;;
2023/03/31 01:22:10;;;;;;;1.2;1.1;;;;;;;11.2;100.0;100010;;;;
2023/03/31 01:23:10;;;;;;;1.2;1.1;;;;;;;11.2;100.0;100010;;;;
2023/03/31 01:24:00;;;;;;;1.2;1.1;;;;;;;11.1;100.0;100000;;;;
2023/03/31 01:25:11;;;;;;;1.2;1.1;;;;;;;11.1;100.0;100000;;;;
2023/03/31 01:26:10;;;;;;;1.2;1.1;;;;;;;11.1;100.0;100000;;;;
2023/03/31 01:27:09;;;;;;;1.2;1.1;;;;;;;11.1;100.0;100000;;;;
2023/03/31 01:28:08;;;;;;;1.2;1.1;;;;;;;11.1;100.0;99990;;;;
2023/03/31 01:29:10;;;;;;;1.2;1.1;;;;;;;11.1;100.0;99990;;;;
2023/03/31 01:30:01;;;;;;;1.2;1.1;;;;;;;10.9;100.0;99990;;;;
2023/03/31 01:31:10;;;;;;;1.2;1.1;;;;;;;10.9;100.0;99990;;;;
2023/03/31 01:32:10;;;;;;;1.2;1.1;;;;;;;11.1;100.0;99980;;;;
2023/03/31 01:33:10;;;;;;;1.2;1.1;;;;;;;11.1;100.0;99980;;;;
2023/03/31 01:34:10;;;;;;;1.2;1.1;;;;;;;11.1;100.0;99980;;;;
2023/03/31 01:35:10;;;;;;;1.2;1.1;;;;;;;11.1;100.0;99980;;;;
2023/03/31 01:36:10;;;;;;;1.2;1.1;;;;;;;11.1;100.0;99980;;;;
2023/03/31 01:37:00;;;;;;;1.2;1.1;;;;;;;11.1;100.0;99980;;;;
2023/03/31 01:38:11;;;;;;;1.2;1.1;;;;;;;11.1;100.0;99970;;;;
2023/03/31 01:39:00;;;;;;;1.2;1.1;;;;;;;11.1;100.0;99970;;;;
2023/03/31 01:40:00;;;;;;;0.9;0.9;;;;;;;11.1;100.0;99970;;;;
2023/03/31 01:41:07;;;;;;;0.9;0.9;;;;;;;11.1;100.0;99970;;;;
2023/03/31 01:42:00;;;;;;;0.9;0.9;;;;;;;11.1;100.0;99970;;;;
2023/03/31 01:43:10;;;;;;;0.9;0.9;;;;;;;11.1;100.0;99970;;;;
2023/03/31 01:44:10;;;;;;;0.9;0.9;;;;;;;11.1;100.0;99960;;;;
2023/03/31 01:45:11;;;;;;;0.9;0.9;;;;;;;11.1;100.0;99960;;;;
2023/03/31 01:46:10;;;;;;;0.9;0.9;;;;;;;11.0;100.0;99960;;;;
2023/03/31 01:47:05;;;;;;;0.9;0.9;;;;;;;11.0;100.0;99960;;;;
2023/03/31 01:48:06;;;;;;;0.9;0.9;;;;;;;11.0;100.0;99960;;;;
2023/03/31 01:49:10;;;;;;;0.9;0.9;;;;;;;11.0;100.0;99960;;;;
2023/03/31 01:50:04;;;;;;;0.9;0.9;;;;;;;11.1;100.0;99960;;;;
2023/03/31 01:51:02;;;;;;;0.9;0.9;;;;;;;11.1;100.0;99960;;;;
2023/03/31 01:52:01;;;;;;;0.9;0.9;;;;;;;11.0;100.0;99950;;;;
2023/03/31 01:53:10;;;;;;;0.9;0.9;;;;;;;11.0;100.0;99950;;;;
2023/03/31 01:54:10;;;;;;;0.9;0.9;;;;;;;11.0;100.0;99940;;;;
2023/03/31 01:55:00;;;;;;;0.9;0.9;;;;;;;11.0;100.0;99940;;;;
2023/03/31 01:56:01;;;;;;;0.9;0.9;;;;;;;11.0;100.0;99940;;;;
2023/03/31 01:57:02;;;;;;;0.9;0.9;;;;;;;11.0;100.0;99940;;;;
2023/03/31 01:58:10;;;;;;;0.9;0.9;;;;;;;11.1;100.0;99930;;;;
2023/03/31 01:59:07;;;;;;;0.9;0.9;;;;;;;11.1;100.0;99930;;;;
2023/03/31 02:00:07;;;;;;;0.7;0.7;;;;;;;11.1;100.0;99930;;;;
2023/03/31 02:01:05;;;;;;;0.7;0.7;;;;;;;11.1;100.0;99930;;;;
2023/03/31 02:02:01;;;;;;;0.7;0.7;;;;;;;11.1;100.0;99930;;;;
2023/03/31 02:03:01;;;;;;;0.7;0.7;;;;;;;11.1;100.0;99930;;;;
2023/03/31 02:04:04;;;;;;;0.7;0.7;;;;;;;11.1;100.0;99920;;;;
2023/03/31 02:05:04;;;;;;;0.7;0.7;;;;;;;11.1;100.0;99920;;;;
2023/03/31 02:06:09;;;;;;;0.7;0.7;;;;;;;11.0;100.0;99920;;;;
2023/03/31 02:07:03;;;;;;;0.7;0.7;;;;;;;11.0;100.0;99920;;;;
2023/03/31 02:08:07;;;;;;;0.7;0.7;;;;;;;11.0;100.0;99910;;;;
2023/03/31 02:09:02;;;;;;;0.7;0.7;;;;;;;11.0;100.0;99910;;;;
2023/03/31 02:10:03;;;;;;;0.7;0.7;;;;;;;10.9;100.0;99910;;;;
2023/03/31 02:11:01;;;;;;;0.7;0.7;;;;;;;10.9;100.0;99910;;;;
2023/03/31 02:12:02;;;;;;;0.7;0.7;;;;;;;11.0;100.0;99900;;;;
2023/03/31 02:13:02;;;;;;;0.7;0.7;;;;;;;11.0;100.0;99900;;;;
2023/03/31 02:14:03;;;;;;;0.7;0.7;;;;;;;10.9;100.0;99890;;;;
2023/03/31 02:15:02;;;;;;;0.7;0.7;;;;;;;10.9;100.0;99890;;;;
2023/03/31 02:16:04;;;;;;;0.7;0.7;;;;;;;10.9;100.0;99880;;;;
2023/03/31 02:17:02;;;;;;;0.7;0.7;;;;;;;10.9;100.0;99880;;;;
2023/03/31 02:18:04;;;;;;;0.7;0.7;;;;;;;10.9;100.0;99880;;;;
2023/03/31 02:19:02;;;;;;;0.7;0.7;;;;;;;10.9;100.0;99880;;;;
2023/03/31 02:20:06;;;;;;;0.7;0.7;;;;;;;10.9;100.0;99870;;;;
2023/03/31 02:21:00;;;;;;;0.7;0.7;;;;;;;10.9;100.0;99870;;;;
2023/03/31 02:22:02;;;;;;;0.7;0.7;;;;;;;10.9;100.0;99870;;;;
2023/03/31 02:23:01;;;;;;;0.7;0.7;;;;;;;10.9;100.0;99870;;;;
2023/03/31 02:24:03;;;;;;;0.7;0.7;;;;;;;10.8;100.0;99860;;;;
2023/03/31 02:25:02;;;;;;;0.7;0.7;;;;;;;10.8;100.0;99860;;;;
2023/03/31 02:26:04;;;;;;;0.7;0.7;;;;;;;10.9;100.0;99860;;;;
2023/03/31 02:27:10;;;;;;;0.7;0.7;;;;;;;10.9;100.0;99860;;;;
2023/03/31 02:28:04;;;;;;;0.7;0.7;;;;;;;10.9;100.0;99850;;;;
2023/03/31 02:29:01;;;;;;;0.7;0.7;;;;;;;10.9;100.0;99850;;;;
2023/03/31 02:30:02;;;;;;;0.7;0.7;;;;;;;10.9;100.0;99850;;;;
2023/03/31 02:31:10;;;;;;;0.7;0.7;;;;;;;10.9;100.0;99850;;;;
2023/03/31 02:32:10;;;;;;;0.7;0.7;;;;;;;10.8;100.0;99840;;;;
2023/03/31 02:33:03;;;;;;;0.7;0.7;;;;;;;10.8;100.0;99840;;;;
2023/03/31 02:34:01;;;;;;;0.7;0.7;;;;;;;10.9;100.0;99830;;;;
2023/03/31 02:35:01;;;;;;;0.7;0.7;;;;;;;10.9;100.0;99830;;;;
2023/03/31 02:36:00;;;;;;;0.7;0.7;;;;;;;10.9;100.0;99820;;;;
2023/03/31 02:37:01;;;;;;;0.7;0.7;;;;;;;10.9;100.0;99820;;;;
2023/03/31 02:38:01;;;;;;;0.7;0.7;;;;;;;10.9;100.0;99810;;;;
2023/03/31 02:39:04;;;;;;;0.7;0.7;;;;;;;10.9;100.0;99810;;;;
2023/03/31 02:40:04;;;;;;;0.9;0.9;;;;;;;11.0;100.0;99810;;;;
2023/03/31 02:41:00;;;;;;;0.9;0.9;;;;;;;11.0;100.0;99810;;;;
2023/03/31 02:42:05;;;;;;;0.9;0.9;;;;;;;11.1;100.0;99800;;;;
2023/03/31 02:43:00;;;;;;;0.9;0.9;;;;;;;11.1;100.0;99800;;;;
2023/03/31 02:44:00;;;;;;;0.9;0.9;;;;;;;11.0;100.0;99800;;;;
2023/03/31 02:45:02;;;;;;;0.9;0.9;;;;;;;11.0;100.0;99800;;;;
2023/03/31 02:46:00;;;;;;;0.9;0.9;;;;;;;11.0;100.0;99790;;;;
2023/03/31 02:47:02;;;;;;;0.9;0.9;;;;;;;11.0;100.0;99790;;;;
2023/03/31 02:48:00;;;;;;;0.9;0.9;;;;;;;11.0;100.0;99790;;;;
2023/03/31 02:49:02;;;;;;;0.9;0.9;;;;;;;11.0;100.0;99790;;;;
2023/03/31 02:50:01;;;;;;;0.9;0.9;;;;;;;11.0;100.0;99780;;;;
2023/03/31 02:51:07;;;;;;;0.9;0.9;;;;;;;11.0;100.0;99780;;;;
2023/03/31 02:52:10;;;;;;;0.9;0.9;;;;;;;11.0;100.0;99780;;;;
2023/03/31 02:53:08;;;;;;;0.9;0.9;;;;;;;11.0;100.0;99780;;;;
2023/03/31 02:54:07;;;;;;;0.9;0.9;;;;;;;11.1;100.0;99770;;;;
2023/03/31 02:55:10;;;;;;;0.9;0.9;;;;;;;11.1;100.0;99770;;;;
2023/03/31 02:56:11;;;;;;;0.9;0.9;;;;;;;11.0;100.0;99760;;;;
2023/03/31 02:57:10;;;;;;;0.9;0.9;;;;;;;11.0;100.0;99760;;;;
2023/03/31 02:58:00;;;;;;;0.9;0.9;;;;;;;10.9;100.0;99760;;;;
2023/03/31 02:59:10;;;;;;;0.9;0.9;;;;;;;10.9;100.0;99760;;;;
2023/03/31 03:00:12;;;;;;;0.7;0.7;;;;;;;10.9;100.0;99750;;;;
2023/03/31 03:01:10;;;;;;;0.7;0.7;;;;;;;10.9;100.0;99750;;;;
2023/03/31 03:02:10;;;;;;;0.7;0.7;;;;;;;10.9;100.0;99750;;;;
2023/03/31 03:03:11;;;;;;;0.7;0.7;;;;;;;10.9;100.0;99750;;;;
2023/03/31 03:04:10;;;;;;;0.7;0.7;;;;;;;10.9;100.0;99750;;;;
2023/03/31 03:05:01;;;;;;;0.7;0.7;;;;;;;10.9;100.0;99750;;;;
2023/03/31 03:06:12;;;;;;;0.7;0.7;;;;;;;10.9;100.0;99740;;;;
2023/03/31 03:07:10;;;;;;;0.7;0.7;;;;;;;10.9;100.0;99740;;;;
2023/03/31 03:08:04;;;;;;;0.7;0.7;;;;;;;11.0;100.0;99730;;;;
2023/03/31 03:09:08;;;;;;;0.7;0.7;;;;;;;11.0;100.0;99730;;;;
2023/03/31 03:10:00;;;;;;;0.7;0.7;;;;;;;10.9;100.0;99720;;;;
2023/03/31 03:11:10;;;;;;;0.7;0.7;;;;;;;10.9;100.0;99720;;;;
2023/03/31 03:12:07;;;;;;;0.7;0.7;;;;;;;11.0;100.0;99710;;;;
2023/03/31 03:13:03;;;;;;;0.7;0.7;;;;;;;11.0;100.0;99710;;;;
2023/03/31 03:14:04;;;;;;;0.7;0.7;;;;;;;11.0;100.0;99710;;;;
2023/03/31 03:15:05;;;;;;;0.7;0.7;;;;;;;11.0;100.0;99710;;;;
2023/03/31 03:16:05;;;;;;;0.7;0.7;;;;;;;10.9;100.0;99700;;;;
2023/03/31 03:17:04;;;;;;;0.7;0.7;;;;;;;10.9;100.0;99700;;;;
2023/03/31 03:18:01;;;;;;;0.7;0.7;;;;;;;10.9;100.0;99710;;;;
2023/03/31 03:19:03;;;;;;;0.7;0.7;;;;;;;10.9;100.0;99710;;;;
2023/03/31 03:20:01;;;;;;;0.7;0.7;;;;;;;10.9;100.0;99700;;;;
2023/03/31 03:21:00;;;;;;;0.7;0.7;;;;;;;10.9;100.0;99700;;;;
2023/03/31 03:22:00;;;;;;;0.7;0.7;;;;;;;10.9;100.0;99700;;;;
2023/03/31 03:23:01;;;;;;;0.7;0.7;;;;;;;10.9;100.0;99700;;;;
2023/03/31 03:24:00;;;;;;;0.7;0.7;;;;;;;10.8;100.0;99690;;;;
2023/03/31 03:25:00;;;;;;;0.7;0.7;;;;;;;10.8;100.0;99690;;;;
2023/03/31 03:26:00;;;;;;;0.7;0.7;;;;;;;10.8;100.0;99680;;;;
2023/03/31 03:27:00;;;;;;;0.7;0.7;;;;;;;10.8;100.0;99680;;;;
2023/03/31 03:28:00;;;;;;;0.7;0.7;;;;;;;10.9;100.0;99680;;;;
2023/03/31 03:29:00;;;;;;;0.7;0.7;;;;;;;10.9;100.0;99680;;;;
2023/03/31 03:30:02;;;;;;;0.7;0.7;;;;;;;10.9;100.0;99680;;;;
2023/03/31 03:31:00;;;;;;;0.7;0.7;;;;;;;10.9;100.0;99680;;;;
2023/03/31 03:32:00;;;;;;;0.7;0.7;;;;;;;11.0;100.0;99680;;;;
2023/03/31 03:33:00;;;;;;;0.7;0.7;;;;;;;11.0;100.0;99680;;;;
2023/03/31 03:34:00;;;;;;;0.7;0.7;;;;;;;11.0;100.0;99680;;;;
2023/03/31 03:35:01;;;;;;;0.7;0.7;;;;;;;11.0;100.0;99680;;;;
2023/03/31 03:36:00;;;;;;;0.7;0.7;;;;;;;11.0;100.0;99680;;;;
2023/03/31 03:37:00;;;;;;;0.7;0.7;;;;;;;11.0;100.0;99680;;;;
2023/03/31 03:38:00;;;;;;;0.7;0.7;;;;;;;10.9;100.0;99690;;;;
2023/03/31 03:39:00;;;;;;;0.7;0.7;;;;;;;10.9;100.0;99690;;;;
2023/03/31 03:40:00;;;;;;;0.8;0.8;;;;;;;11.0;100.0;99670;;;;
2023/03/31 03:41:00;;;;;;;0.8;0.8;;;;;;;11.0;100.0;99670;;;;
2023/03/31 03:42:00;;;;;;;0.8;0.8;;;;;;;10.9;100.0;99660;;;;
2023/03/31 03:43:00;;;;;;;0.8;0.8;;;;;;;10.9;100.0;99660;;;;
2023/03/31 03:44:00;;;;;;;0.8;0.8;;;;;;;10.9;100.0;99660;;;;
2023/03/31 03:45:00;;;;;;;0.8;0.8;;;;;;;10.9;100.0;99660;;;;
2023/03/31 03:46:01;;;;;;;0.8;0.8;;;;;;;10.9;100.0;99670;;;;
2023/03/31 03:47:00;;;;;;;0.8;0.8;;;;;;;10.9;100.0;99670;;;;
2023/03/31 03:48:00;;;;;;;0.8;0.8;;;;;;;10.9;100.0;99660;;;;
2023/03/31 03:49:01;;;;;;;0.8;0.8;;;;;;;10.9;100.0;99660;;;;
2023/03/31 03:50:01;;;;;;;0.8;0.8;;;;;;;10.9;100.0;99670;;;;
2023/03/31 03:51:00;;;;;;;0.8;0.8;;;;;;;10.9;100.0;99670;;;;
2023/03/31 03:52:00;;;;;;;0.8;0.8;;;;;;;10.7;100.0;99660;;;;
2023/03/31 03:53:00;;;;;;;0.8;0.8;;;;;;;10.7;100.0;99660;;;;
2023/03/31 03:54:00;;;;;;;0.8;0.8;;;;;;;10.8;100.0;99650;;;;
2023/03/31 03:55:00;;;;;;;0.8;0.8;;;;;;;10.8;100.0;99650;;;;
2023/03/31 03:56:01;;;;;;;0.8;0.8;;;;;;;10.7;100.0;99640;;;;
2023/03/31 03:57:01;;;;;;;0.8;0.8;;;;;;;10.7;100.0;99640;;;;
2023/03/31 03:58:00;;;;;;;0.8;0.8;;;;;;;10.9;100.0;99640;;;;
2023/03/31 03:59:00;;;;;;;0.8;0.8;;;;;;;10.9;100.0;99640;;;;
2023/03/31 04:00:00;;;;;;;0.8;0.8;;;;;;;10.9;100.0;99620;;;;
2023/03/31 04:01:01;;;;;;;0.8;0.8;;;;;;;10.9;100.0;99620;;;;
2023/03/31 04:02:00;;;;;;;0.8;0.8;;;;;;;10.8;100.0;99620;;;;
2023/03/31 04:03:00;;;;;;;0.8;0.8;;;;;;;10.8;100.0;99620;;;;
2023/03/31 04:04:00;;;;;;;0.8;0.8;;;;;;;10.8;100.0;99610;;;;
2023/03/31 04:05:00;;;;;;;0.8;0.8;;;;;;;10.8;100.0;99610;;;;
2023/03/31 04:06:00;;;;;;;0.8;0.8;;;;;;;10.9;100.0;99610;;;;
2023/03/31 04:07:00;;;;;;;0.8;0.8;;;;;;;10.9;100.0;99610;;;;
2023/03/31 04:08:01;;;;;;;0.8;0.8;;;;;;;10.8;100.0;99610;;;;
2023/03/31 04:09:00;;;;;;;0.8;0.8;;;;;;;10.8;100.0;99610;;;;
2023/03/31 04:10:00;;;;;;;0.8;0.8;;;;;;;10.9;100.0;99590;;;;
2023/03/31 04:11:00;;;;;;;0.8;0.8;;;;;;;10.9;100.0;99590;;;;
2023/03/31 04:12:00;;;;;;;0.8;0.8;;;;;;;10.7;100.0;99590;;;;
2023/03/31 04:13:00;;;;;;;0.8;0.8;;;;;;;10.7;100.0;99590;;;;
2023/03/31 04:14:00;;;;;;;0.8;0.8;;;;;;;10.8;100.0;99590;;;;
2023/03/31 04:15:00;;;;;;;0.8;0.8;;;;;;;10.8;100.0;99590;;;;
2023/03/31 04:16:00;;;;;;;0.8;0.8;;;;;;;10.6;100.0;99590;;;;
2023/03/31 04:17:01;;;;;;;0.8;0.8;;;;;;;10.6;100.0;99590;;;;
2023/03/31 04:18:00;;;;;;;0.8;0.8;;;;;;;10.5;100.0;99580;;;;
2023/03/31 04:19:03;;;;;;;0.8;0.8;;;;;;;10.5;100.0;99580;;;;
2023/03/31 04:20:01;;;;;;;1.1;1.1;;;;;;;10.5;100.0;99580;;;;
2023/03/31 04:21:03;;;;;;;1.1;1.1;;;;;;;10.5;100.0;99580;;;;
2023/03/31 04:22:01;;;;;;;1.1;1.1;;;;;;;10.7;100.0;99570;;;;
2023/03/31 04:23:01;;;;;;;1.1;1.1;;;;;;;10.7;100.0;99570;;;;
2023/03/31 04:24:03;;;;;;;1.1;1.1;;;;;;;10.6;100.0;99570;;;;
2023/03/31 04:25:01;;;;;;;1.1;1.1;;;;;;;10.6;100.0;99570;;;;
2023/03/31 04:26:01;;;;;;;1.1;1.1;;;;;;;10.6;100.0;99570;;;;
2023/03/31 04:27:01;;;;;;;1.1;1.1;;;;;;;10.6;100.0;99570;;;;
2023/03/31 04:28:00;;;;;;;1.1;1.1;;;;;;;10.7;100.0;99560;;;;
2023/03/31 04:29:00;;;;;;;1.1;1.1;;;;;;;10.7;100.0;99560;;;;
2023/03/31 04:30:00;;;;;;;1.1;1.1;;;;;;;10.6;100.0;99550;;;;
2023/03/31 04:31:01;;;;;;;1.1;1.1;;;;;;;10.6;100.0;99550;;;;
2023/03/31 04:32:00;;;;;;;1.1;1.1;;;;;;;10.6;100.0;99550;;;;
2023/03/31 04:33:02;;;;;;;1.1;1.1;;;;;;;10.6;100.0;99550;;;;
2023/03/31 04:34:05;;;;;;;1.1;1.1;;;;;;;10.7;100.0;99550;;;;
2023/03/31 04:35:01;;;;;;;1.1;1.1;;;;;;;10.7;100.0;99550;;;;
2023/03/31 04:36:05;;;;;;;1.1;1.1;;;;;;;10.6;100.0;99540;;;;
2023/03/31 04:37:01;;;;;;;1.1;1.1;;;;;;;10.6;100.0;99540;;;;
2023/03/31 04:38:01;;;;;;;1.1;1.1;;;;;;;10.7;100.0;99530;;;;
2023/03/31 04:39:00;;;;;;;1.1;1.1;;;;;;;10.7;100.0;99530;;;;
2023/03/31 04:40:07;;;;;;;0.8;0.8;;;;;;;10.7;100.0;99520;;;;
2023/03/31 04:41:00;;;;;;;0.8;0.8;;;;;;;10.7;100.0;99520;;;;
2023/03/31 04:42:00;;;;;;;0.8;0.8;;;;;;;10.6;100.0;99530;;;;
2023/03/31 04:43:00;;;;;;;0.8;0.8;;;;;;;10.6;100.0;99530;;;;
2023/03/31 04:44:00;;;;;;;0.8;0.8;;;;;;;10.6;100.0;99520;;;;
2023/03/31 04:45:00;;;;;;;0.8;0.8;;;;;;;10.6;100.0;99520;;;;
2023/03/31 04:46:00;;;;;;;0.8;0.8;;;;;;;10.6;100.0;99510;;;;
2023/03/31 04:47:01;;;;;;;0.8;0.8;;;;;;;10.6;100.0;99510;;;;
2023/03/31 04:48:00;;;;;;;0.8;0.8;;;;;;;10.7;100.0;99510;;;;
2023/03/31 04:49:01;;;;;;;0.8;0.8;;;;;;;10.7;100.0;99510;;;;
2023/03/31 04:50:00;;;;;;;0.8;0.8;;;;;;;10.8;100.0;99510;;;;
2023/03/31 04:51:01;;;;;;;0.8;0.8;;;;;;;10.8;100.0;99510;;;;
2023/03/31 04:52:00;;;;;;;0.8;0.8;;;;;;;10.8;100.0;99510;;;;
2023/03/31 04:53:00;;;;;;;0.8;0.8;;;;;;;10.8;100.0;99510;;;;
2023/03/31 04:54:00;;;;;;;0.8;0.8;;;;;;;10.9;100.0;99490;;;;
2023/03/31 04:55:00;;;;;;;0.8;0.8;;;;;;;10.9;100.0;99490;;;;
2023/03/31 04:56:00;;;;;;;0.8;0.8;;;;;;;10.7;100.0;99490;;;;
2023/03/31 04:57:00;;;;;;;0.8;0.8;;;;;;;10.7;100.0;99490;;;;
2023/03/31 04:58:00;;;;;;;0.8;0.8;;;;;;;10.8;100.0;99480;;;;
2023/03/31 04:59:02;;;;;;;0.8;0.8;;;;;;;10.8;100.0;99480;;;;
2023/03/31 05:00:00;;;;;;;0.8;0.8;;;;;;;10.7;100.0;99480;;;;
2023/03/31 05:01:00;;;;;;;0.8;0.8;;;;;;;10.7;100.0;99480;;;;
2023/03/31 05:02:00;;;;;;;0.8;0.8;;;;;;;10.7;100.0;99480;;;;
2023/03/31 05:03:00;;;;;;;0.8;0.8;;;;;;;10.7;100.0;99480;;;;
2023/03/31 05:04:01;;;;;;;0.8;0.8;;;;;;;10.8;100.0;99470;;;;
2023/03/31 05:05:00;;;;;;;0.8;0.8;;;;;;;10.8;100.0;99470;;;;
2023/03/31 05:06:00;;;;;;;0.8;0.8;;;;;;;10.7;100.0;99470;;;;
2023/03/31 05:07:00;;;;;;;0.8;0.8;;;;;;;10.7;100.0;99470;;;;
2023/03/31 05:08:00;;;;;;;0.8;0.8;;;;;;;10.7;100.0;99470;;;;
2023/03/31 05:09:00;;;;;;;0.8;0.8;;;;;;;10.7;100.0;99470;;;;
2023/03/31 05:10:00;;;;;;;0.8;0.8;;;;;;;10.8;100.0;99460;;;;
2023/03/31 05:11:01;;;;;;;0.8;0.8;;;;;;;10.8;100.0;99460;;;;
2023/03/31 05:12:00;;;;;;;0.8;0.8;;;;;;;10.7;100.0;99460;;;;
2023/03/31 05:13:00;;;;;;;0.8;0.8;;;;;;;10.7;100.0;99460;;;;
2023/03/31 05:14:00;;;;;;;0.8;0.8;;;;;;;10.6;100.0;99460;;;;
2023/03/31 05:15:01;;;;;;;0.8;0.8;;;;;;;10.6;100.0;99460;;;;
2023/03/31 05:16:09;;;;;;;0.8;0.8;;;;;;;10.6;100.0;99460;;;;
2023/03/31 05:17:00;;;;;;;0.8;0.8;;;;;;;10.6;100.0;99460;;;;
2023/03/31 05:18:00;;;;;;;0.8;0.8;;;;;;;10.6;100.0;99460;;;;
2023/03/31 05:19:00;;;;;;;0.8;0.8;;;;;;;10.6;100.0;99460;;;;
2023/03/31 05:20:00;;;;;;;0.9;0.9;;;;;;;10.6;100.0;99450;;;;
2023/03/31 05:21:10;;;;;;;0.9;0.9;;;;;;;10.6;100.0;99450;;;;
2023/03/31 05:22:00;;;;;;;0.9;0.9;;;;;;;10.6;100.0;99440;;;;
2023/03/31 05:23:00;;;;;;;0.9;0.9;;;;;;;10.6;100.0;99440;;;;
2023/03/31 05:24:00;;;;;;;0.9;0.9;;;;;;;10.6;100.0;99450;;;;
2023/03/31 05:25:00;;;;;;;0.9;0.9;;;;;;;10.6;100.0;99450;;;;
2023/03/31 05:26:00;;;;;;;0.9;0.9;;;;;;;10.7;100.0;99440;;;;
2023/03/31 05:27:00;;;;;;;0.9;0.9;;;;;;;10.7;100.0;99440;;;;
2023/03/31 05:28:01;;;;;;;0.9;0.9;;;;;;;10.6;100.0;99430;;;;
2023/03/31 05:29:00;;;;;;;0.9;0.9;;;;;;;10.6;100.0;99430;;;;
2023/03/31 05:30:01;;;;;;;0.9;0.9;;;;;;;10.6;100.0;99420;;;;
2023/03/31 05:31:01;;;;;;;0.9;0.9;;;;;;;10.6;100.0;99420;;;;
2023/03/31 05:32:00;;;;;;;0.9;0.9;;;;;;;10.7;100.0;99410;;;;
2023/03/31 05:33:00;;;;;;;0.9;0.9;;;;;;;10.7;100.0;99410;;;;
2023/03/31 05:34:00;;;;;;;0.9;0.9;;;;;;;10.6;100.0;99420;;;;
2023/03/31 05:35:01;;;;;;;0.9;0.9;;;;;;;10.6;100.0;99420;;;;
2023/03/31 05:36:00;;;;;;;0.9;0.9;;;;;;;10.6;100.0;99420;;;;
2023/03/31 05:37:00;;;;;;;0.9;0.9;;;;;;;10.6;100.0;99420;;;;
2023/03/31 05:38:00;;;;;;;0.9;0.9;;;;;;;10.5;100.0;99410;;;;
2023/03/31 05:39:00;;;;;;;0.9;0.9;;;;;;;10.5;100.0;99410;;;;
2023/03/31 05:40:00;;;;;;;0.7;0.7;;;;;;;10.4;100.0;99410;;;;
2023/03/31 05:41:00;;;;;;;0.7;0.7;;;;;;;10.4;100.0;99410;;;;
2023/03/31 05:42:01;;;;;;;0.7;0.7;;;;;;;10.4;100.0;99400;;;;
2023/03/31 05:43:00;;;;;;;0.7;0.7;;;;;;;10.4;100.0;99400;;;;
2023/03/31 05:44:01;;;;;;;0.7;0.7;;;;;;;10.5;100.0;99400;;;;
2023/03/31 05:45:00;;;;;;;0.7;0.7;;;;;;;10.5;100.0;99400;;;;
2023/03/31 05:46:01;;;;;;;0.7;0.7;;;;;;;10.4;100.0;99400;;;;
2023/03/31 05:47:00;;;;;;;0.7;0.7;;;;;;;10.4;100.0;99400;;;;
2023/03/31 05:48:01;;;;;;;0.7;0.7;;;;;;;10.4;100.0;99400;;;;
2023/03/31 05:49:01;;;;;;;0.7;0.7;;;;;;;10.4;100.0;99400;;;;
2023/03/31 05:50:00;;;;;;;0.7;0.7;;;;;;;10.4;100.0;99400;;;;
2023/03/31 05:51:00;;;;;;;0.7;0.7;;;;;;;10.4;100.0;99400;;;;
2023/03/31 05:52:00;;;;;;;0.7;0.7;;;;;;;10.4;100.0;99400;;;;
2023/03/31 05:53:00;;;;;;;0.7;0.7;;;;;;;10.4;100.0;99400;;;;
2023/03/31 05:54:00;;;;;;;0.7;0.7;;;;;;;10.4;100.0;99390;;;;
2023/03/31 05:55:00;;;;;;;0.7;0.7;;;;;;;10.4;100.0;99390;;;;
2023/03/31 05:56:02;;;;;;;0.7;0.7;;;;;;;10.5;100.0;99390;;;;
2023/03/31 05:57:00;;;;;;;0.7;0.7;;;;;;;10.5;100.0;99390;;;;
2023/03/31 05:58:00;;;;;;;0.7;0.7;;;;;;;10.4;100.0;99380;;;;
2023/03/31 05:59:00;;;;;;;0.7;0.7;;;;;;;10.4;100.0;99380;;;;
2023/03/31 06:00:01;;;;;;;0.8;0.8;;;;;;;10.4;100.0;99380;;;;
2023/03/31 06:01:06;;;;;;;0.8;0.8;;;;;;;10.4;100.0;99380;;;;
2023/03/31 06:02:01;;;;;;;0.8;0.8;;;;;;;10.4;100.0;99390;;;;
2023/03/31 06:03:00;;;;;;;0.8;0.8;;;;;;;10.4;100.0;99390;;;;
2023/03/31 06:04:00;;;;;;;0.8;0.8;;;;;;;10.4;100.0;99380;;;;
2023/03/31 06:05:00;;;;;;;0.8;0.8;;;;;;;10.4;100.0;99380;;;;
2023/03/31 06:06:01;;;;;;;0.8;0.8;;;;;;;10.6;100.0;99380;;;;
2023/03/31 06:07:00;;;;;;;0.8;0.8;;;;;;;10.6;100.0;99380;;;;
2023/03/31 06:08:00;;;;;;;0.8;0.8;;;;;;;10.5;100.0;99390;;;;
2023/03/31 06:09:00;;;;;;;0.8;0.8;;;;;;;10.5;100.0;99390;;;;
2023/03/31 06:10:00;;;;;;;0.8;0.8;;;;;;;10.5;100.0;99380;;;;
2023/03/31 06:11:03;;;;;;;0.8;0.8;;;;;;;10.5;100.0;99380;;;;
2023/03/31 06:12:00;;;;;;;0.8;0.8;;;;;;;10.4;100.0;99380;;;;
2023/03/31 06:13:00;;;;;;;0.8;0.8;;;;;;;10.4;100.0;99380;;;;
2023/03/31 06:14:00;;;;;;;0.8;0.8;;;;;;;10.5;100.0;99370;;;;
2023/03/31 06:15:00;;;;;;;0.8;0.8;;;;;;;10.5;100.0;99370;;;;
2023/03/31 06:16:00;;;;;;;0.8;0.8;;;;;;;10.5;100.0;99380;;;;
2023/03/31 06:17:00;;;;;;;0.8;0.8;;;;;;;10.5;100.0;99380;;;;
2023/03/31 06:18:00;;;;;;;0.8;0.8;;;;;;;10.5;100.0;99380;;;;
2023/03/31 06:19:00;;;;;;;0.8;0.8;;;;;;;10.5;100.0;99380;;;;
2023/03/31 06:20:00;;;;;;;0.9;0.9;;;;;;;10.5;100.0;99380;;;;
2023/03/31 06:21:00;;;;;;;0.9;0.9;;;;;;;10.5;100.0;99380;;;;
2023/03/31 06:22:00;;;;;;;0.9;0.9;;;;;;;10.5;100.0;99370;;;;
2023/03/31 06:23:00;;;;;;;0.9;0.9;;;;;;;10.5;100.0;99370;;;;
2023/03/31 06:24:00;;;;;;;0.9;0.9;;;;;;;10.5;100.0;99370;;;;
2023/03/31 06:25:00;;;;;;;0.9;0.9;;;;;;;10.5;100.0;99370;;;;
2023/03/31 06:26:02;;;;;;;0.9;0.9;;;;;;;10.4;100.0;99370;;;;
2023/03/31 06:27:00;;;;;;;0.9;0.9;;;;;;;10.4;100.0;99370;;;;